Time;durP1;ratioP1;P1;durP2;ratioP2;P2;SDS_P1;SDS_P2;PMS_P1;PMS_P2;Temp;Humidity;BMP_temperature;BMP_pressure;BME280_temperature;BME280_humidity;BME280_pressure;Samples;Min_cycle;Max_cycle;Signal;HPM_P1;HPM_P2
2023/01/07 00:01:08;;;;;;;4.25;3.20;;;;;;;10.01;78.58;98680.03;4980564;28;21002;-83
2023/01/07 00:03:35;;;;;;;4.07;3.25;;;;;;;9.98;78.81;98688.28;4978608;28;20078;-83
2023/01/07 00:06:10;;;;;;;4.00;3.10;;;;;;;9.98;78.53;98686.47;4978264;28;20053;-83
2023/01/07 00:08:39;;;;;;;3.25;2.95;;;;;;;9.92;78.36;98681.97;4979784;28;20069;-83
2023/01/07 00:11:12;;;;;;;3.85;2.75;;;;;;;9.96;78.47;98679.81;4981383;28;20088;-83
2023/01/07 00:13:38;;;;;;;4.13;2.83;;;;;;;9.98;78.49;98673.38;4983041;28;20046;-83
2023/01/07 00:16:08;;;;;;;3.65;2.53;;;;;;;9.95;78.64;98678.16;4980954;28;20066;-83
2023/01/07 00:18:35;;;;;;;3.88;3.10;;;;;;;9.96;78.84;98674.56;4979015;28;20043;-83
2023/01/07 00:21:05;;;;;;;4.10;2.95;;;;;;;9.91;78.94;98667.22;4977930;28;20033;-83
2023/01/07 00:23:32;;;;;;;3.22;2.88;;;;;;;9.93;79.13;98678.34;4981008;28;20110;-83
2023/01/07 00:26:03;;;;;;;4.47;3.13;;;;;;;9.92;79.20;98669.66;4980769;28;20045;-83
2023/01/07 00:28:29;;;;;;;4.00;2.90;;;;;;;9.95;79.36;98667.66;4978126;28;20475;-83
2023/01/07 00:31:00;;;;;;;4.90;2.92;;;;;;;9.97;79.22;98670.94;4976865;28;20039;-83
2023/01/07 00:33:27;;;;;;;3.80;2.83;;;;;;;9.93;79.37;98660.81;4977219;28;20046;-83
2023/01/07 00:36:08;;;;;;;5.63;3.20;;;;;;;9.97;79.28;98663.88;4978746;28;20042;-83
2023/01/07 00:38:36;;;;;;;3.28;2.75;;;;;;;9.98;79.25;98655.03;4977317;28;20039;-83
2023/01/07 00:41:03;;;;;;;4.65;2.83;;;;;;;9.97;79.18;98650.78;4977317;28;20109;-83
2023/01/07 00:43:28;;;;;;;3.40;2.53;;;;;;;10.01;79.24;98656.47;4976023;28;20058;-83
2023/01/07 00:45:54;;;;;;;5.18;2.70;;;;;;;10.01;78.75;98651.22;4978321;28;20039;-83
2023/01/07 00:48:22;;;;;;;4.25;2.83;;;;;;;9.99;78.65;98650.59;4976760;28;20046;-83
2023/01/07 00:50:50;;;;;;;3.05;2.33;;;;;;;9.97;78.55;98649.97;4979099;28;20069;-83
2023/01/07 00:53:16;;;;;;;3.17;2.47;;;;;;;9.94;78.61;98653.75;4981303;28;20122;-83
2023/01/07 00:55:42;;;;;;;3.22;2.85;;;;;;;9.88;78.75;98644.00;4985261;28;20038;-83
2023/01/07 00:58:14;;;;;;;3.30;2.85;;;;;;;9.87;78.77;98634.53;4984575;28;20036;-83
2023/01/07 01:00:40;;;;;;;2.90;2.58;;;;;;;9.95;79.01;98644.09;4982791;28;20438;-83
2023/01/07 01:03:07;;;;;;;4.25;2.78;;;;;;;9.96;79.02;98645.75;4985055;28;20112;-83
2023/01/07 01:05:32;;;;;;;3.22;2.92;;;;;;;9.95;78.91;98644.09;4986217;28;20134;-83
2023/01/07 01:07:58;;;;;;;3.58;2.83;;;;;;;9.89;79.03;98638.56;4984654;28;20121;-83
2023/01/07 01:10:23;;;;;;;3.97;2.80;;;;;;;9.95;79.24;98654.56;4982513;28;20045;-83
2023/01/07 01:12:49;;;;;;;3.28;2.65;;;;;;;9.93;78.92;98642.47;4983334;28;20137;-83
2023/01/07 01:15:15;;;;;;;3.30;2.55;;;;;;;9.97;78.83;98636.88;4983344;28;20039;-83
2023/01/07 01:17:41;;;;;;;3.78;2.65;;;;;;;10.02;79.15;98647.63;4989111;28;20040;-83
2023/01/07 01:20:12;;;;;;;3.20;2.70;;;;;;;10.01;79.11;98640.72;4981261;28;20038;-83
2023/01/07 01:22:38;;;;;;;2.83;2.50;;;;;;;10.00;78.85;98645.16;4983448;28;20069;-83
2023/01/07 01:25:04;;;;;;;3.33;2.60;;;;;;;9.92;78.87;98643.47;4982354;28;20066;-83
2023/01/07 01:27:30;;;;;;;2.97;2.63;;;;;;;9.95;79.35;98647.50;4980423;28;20038;-83
2023/01/07 01:29:57;;;;;;;4.22;2.40;;;;;;;9.96;79.29;98648.34;4980965;28;20031;-83
2023/01/07 01:32:22;;;;;;;5.38;2.78;;;;;;;9.96;78.72;98645.75;4978875;28;20030;-83
2023/01/07 01:34:48;;;;;;;4.63;3.15;;;;;;;9.97;78.97;98644.75;4980393;28;20034;-83
2023/01/07 01:37:13;;;;;;;5.50;3.28;;;;;;;10.00;79.10;98641.72;4981385;28;20042;-83
2023/01/07 01:39:39;;;;;;;5.05;2.90;;;;;;;9.99;79.44;98647.97;4981175;28;20169;-83
2023/01/07 01:42:04;;;;;;;5.38;2.78;;;;;;;9.99;79.61;98647.97;4982169;28;20482;-83
2023/01/07 01:44:46;;;;;;;4.30;2.65;;;;;;;10.00;79.89;98636.50;4983887;28;20033;-83
2023/01/07 01:47:42;;;;;;;5.03;2.88;;;;;;;9.93;79.45;98634.59;4982146;28;20062;-83
2023/01/07 01:50:31;;;;;;;3.60;2.80;;;;;;;10.00;79.76;98639.13;4977905;28;20097;-83
2023/01/07 01:53:05;;;;;;;3.25;2.60;;;;;;;9.98;79.56;98636.69;4981392;28;20039;-83
2023/01/07 01:55:39;;;;;;;2.45;2.25;;;;;;;9.99;79.70;98634.88;4977045;28;20057;-83
2023/01/07 01:58:14;;;;;;;4.00;3.10;;;;;;;10.03;79.96;98631.72;4984002;28;20034;-83
2023/01/07 02:00:41;;;;;;;3.95;2.53;;;;;;;9.98;79.23;98638.50;4981394;28;20038;-83
2023/01/07 02:03:13;;;;;;;4.88;2.65;;;;;;;9.97;80.14;98627.19;4979697;28;20078;-83
2023/01/07 02:05:41;;;;;;;3.45;2.58;;;;;;;10.00;79.62;98628.63;4981708;28;20034;-83
2023/01/07 02:08:08;;;;;;;3.28;2.35;;;;;;;9.99;79.95;98627.00;4983529;28;20072;-83
2023/01/07 02:10:34;;;;;;;3.53;2.50;;;;;;;9.88;79.96;98616.00;4981230;28;20141;-83
2023/01/07 02:13:11;;;;;;;5.82;2.55;;;;;;;10.02;80.41;98621.41;4980560;28;20045;-83
2023/01/07 02:15:54;;;;;;;2.38;2.10;;;;;;;10.02;79.92;98622.22;4982872;28;20569;-83
2023/01/07 02:18:47;;;;;;;3.03;2.50;;;;;;;10.01;79.86;98625.81;4980276;28;20034;-83
2023/01/07 02:21:36;;;;;;;4.03;2.40;;;;;;;10.02;80.15;98621.41;4979171;28;20102;-83
2023/01/07 02:24:48;;;;;;;5.30;2.67;;;;;;;10.02;80.22;98621.41;4979187;28;20062;-83
2023/01/07 02:28:04;;;;;;;3.72;2.80;;;;;;;10.02;80.29;98621.41;4979159;28;20494;-83
2023/01/07 02:31:03;;;;;;;3.40;2.40;;;;;;;10.02;80.49;98621.41;4976689;28;20500;-83
2023/01/07 02:33:42;;;;;;;3.10;2.53;;;;;;;10.01;80.11;98615.34;4979626;28;20034;-83
2023/01/07 02:36:38;;;;;;;3.28;2.70;;;;;;;9.97;80.07;98608.84;4978239;28;20053;-83
2023/01/07 02:39:26;;;;;;;3.83;2.80;;;;;;;9.97;80.12;98597.56;4979869;28;20105;-83
2023/01/07 02:42:22;;;;;;;3.58;2.80;;;;;;;9.99;80.12;98595.56;4980491;28;20045;-83
2023/01/07 02:45:15;;;;;;;3.00;2.70;;;;;;;10.01;80.32;98597.00;4980775;28;20030;-83
2023/01/07 02:47:48;;;;;;;4.22;2.42;;;;;;;9.99;80.12;98585.09;4979512;28;20050;-83
2023/01/07 02:50:14;;;;;;;4.95;2.38;;;;;;;10.02;80.30;98589.97;4978807;28;20695;-83
2023/01/07 02:52:39;;;;;;;2.80;2.47;;;;;;;9.91;80.13;98584.19;4977523;28;20043;-83
2023/01/07 02:55:18;;;;;;;3.22;2.60;;;;;;;9.98;80.55;98588.72;4979189;28;20546;-83
2023/01/07 02:58:07;;;;;;;2.70;2.30;;;;;;;9.93;80.36;98576.97;4984487;28;20366;-83
2023/01/07 03:01:11;;;;;;;4.30;2.55;;;;;;;9.95;80.41;98575.97;4980843;28;20038;-83
2023/01/07 03:04:13;;;;;;;3.35;2.53;;;;;;;9.95;80.91;98578.56;4979372;28;20512;-83
2023/01/07 03:07:11;;;;;;;3.90;2.90;;;;;;;9.96;81.06;98575.78;4981330;28;20109;-83
2023/01/07 03:10:13;;;;;;;3.88;2.50;;;;;;;9.95;81.15;98568.91;4981248;28;20101;-83
2023/01/07 03:12:51;;;;;;;2.95;2.50;;;;;;;9.93;81.12;98569.09;4979891;28;20057;-83
2023/01/07 03:15:50;;;;;;;3.65;2.55;;;;;;;9.88;81.06;98568.84;4981834;28;20038;-83
2023/01/07 03:18:26;;;;;;;2.65;2.38;;;;;;;9.85;80.88;98566.59;4981521;28;20512;-83
2023/01/07 03:21:00;;;;;;;2.60;2.30;;;;;;;9.83;81.18;98559.91;4979704;28;20517;-83
2023/01/07 03:23:29;;;;;;;3.53;2.40;;;;;;;9.80;81.21;98560.28;4977378;28;20035;-83
2023/01/07 03:26:02;;;;;;;3.45;2.42;;;;;;;9.76;81.09;98559.81;4981585;28;20394;-83
2023/01/07 03:28:34;;;;;;;3.83;2.60;;;;;;;9.72;81.50;98558.56;4976749;28;20481;-83
2023/01/07 03:31:03;;;;;;;2.40;2.20;;;;;;;9.76;81.76;98557.19;4977717;28;20039;-82
2023/01/07 03:33:46;;;;;;;2.63;2.33;;;;;;;9.78;81.76;98557.03;4977760;28;20047;-83
2023/01/07 03:36:21;;;;;;;2.72;2.17;;;;;;;9.79;81.76;98558.66;4980616;28;20043;-83
2023/01/07 03:38:50;;;;;;;2.67;2.38;;;;;;;9.74;81.80;98553.97;4976001;28;20505;-83
2023/01/07 03:42:38;;;;;;;4.28;2.50;;;;;;;9.76;81.47;98548.53;4982796;28;20466;-83
2023/01/07 03:44:01;;;;;;;3.05;2.55;;;;;;;9.80;81.58;98555.84;4977617;28;20039;-83
2023/01/07 03:46:27;;;;;;;2.40;2.20;;;;;;;9.75;81.17;98541.66;4980405;28;20497;-83
2023/01/07 03:48:53;;;;;;;4.28;2.60;;;;;;;9.75;81.53;98547.72;4979243;28;20030;-83
2023/01/07 03:51:18;;;;;;;3.45;2.50;;;;;;;9.74;81.69;98540.06;4977537;28;20601;-83
2023/01/07 03:53:44;;;;;;;4.00;2.30;;;;;;;9.73;81.59;98539.25;4982510;28;20430;-83
2023/01/07 03:56:09;;;;;;;2.55;2.30;;;;;;;9.74;81.54;98543.47;4981986;28;20065;-83
2023/01/07 03:58:35;;;;;;;2.92;2.30;;;;;;;9.71;81.25;98538.59;4979724;28;20461;-83
2023/01/07 04:01:00;;;;;;;4.63;2.47;;;;;;;9.73;81.83;98531.38;4982758;28;20034;-83
2023/01/07 04:03:26;;;;;;;3.20;2.20;;;;;;;9.70;81.93;98529.13;4981122;28;20034;-83
2023/01/07 04:05:51;;;;;;;3.38;2.30;;;;;;;9.69;81.94;98530.13;4980841;28;20034;-83
2023/01/07 04:08:16;;;;;;;2.50;2.25;;;;;;;9.74;81.58;98526.94;4984577;28;20113;-83
2023/01/07 04:10:42;;;;;;;2.78;2.30;;;;;;;9.74;81.89;98530.38;4979592;28;20505;-83
2023/01/07 04:13:08;;;;;;;3.35;2.13;;;;;;;9.75;81.89;98525.94;4978975;28;20874;-83
2023/01/07 04:15:33;;;;;;;3.00;2.40;;;;;;;9.75;81.81;98521.53;4982245;28;20510;-83
2023/01/07 04:17:59;;;;;;;2.78;2.13;;;;;;;9.74;81.89;98519.09;4981785;28;20042;-82
2023/01/07 04:20:24;;;;;;;2.63;2.30;;;;;;;9.74;81.77;98513.84;4980461;28;20043;-83
2023/01/07 04:22:50;;;;;;;3.75;2.50;;;;;;;9.74;81.56;98504.19;4978345;28;20544;-83
2023/01/07 04:25:16;;;;;;;2.53;2.20;;;;;;;9.75;82.00;98505.00;4980029;28;20418;-83
2023/01/07 04:27:41;;;;;;;2.28;2.08;;;;;;;9.74;81.86;98506.81;4978562;28;20049;-83
2023/01/07 04:30:07;;;;;;;2.47;2.28;;;;;;;9.75;82.04;98502.38;4979779;28;20117;-83
2023/01/07 04:32:33;;;;;;;3.08;2.38;;;;;;;9.76;81.70;98493.53;4973127;28;20034;-83
2023/01/07 04:34:59;;;;;;;2.92;2.40;;;;;;;9.74;81.80;98504.19;4979403;28;20046;-83
2023/01/07 04:37:24;;;;;;;3.63;2.45;;;;;;;9.73;81.89;98486.84;4978373;28;20110;-83
2023/01/07 04:39:50;;;;;;;5.60;2.85;;;;;;;9.72;82.09;98493.09;4977948;28;20030;-83
2023/01/07 04:42:15;;;;;;;4.38;2.67;;;;;;;9.77;81.64;98492.53;4983192;28;20114;-82
2023/01/07 04:44:40;;;;;;;3.67;2.58;;;;;;;9.76;81.77;98501.38;4976608;28;20039;-83
2023/01/07 04:47:06;;;;;;;5.13;3.03;;;;;;;9.67;81.88;98477.13;4976602;28;20042;-83
2023/01/07 04:49:31;;;;;;;4.28;2.80;;;;;;;9.74;82.14;98488.47;4976948;28;20690;-83
2023/01/07 04:51:57;;;;;;;2.70;2.50;;;;;;;9.77;82.25;98484.66;4977963;28;20064;-83
2023/01/07 04:54:22;;;;;;;2.63;2.20;;;;;;;9.77;82.07;98482.84;4980880;28;20117;-83
2023/01/07 04:56:48;;;;;;;3.38;2.25;;;;;;;9.80;81.89;98482.50;4975727;28;20034;-83
2023/01/07 04:59:13;;;;;;;3.30;2.90;;;;;;;9.81;81.60;98478.88;4978216;28;20118;-83
2023/01/07 05:01:39;;;;;;;5.30;2.80;;;;;;;9.72;81.58;98464.28;4978184;28;20041;-83
2023/01/07 05:04:04;;;;;;;2.78;2.42;;;;;;;9.79;81.79;98478.25;4976783;28;20120;-83
2023/01/07 05:06:30;;;;;;;2.97;2.60;;;;;;;9.73;81.83;98460.66;4981551;28;20035;-83
2023/01/07 05:08:55;;;;;;;3.72;2.58;;;;;;;9.75;81.92;98455.22;4978132;28;20087;-83
2023/01/07 05:11:21;;;;;;;3.47;2.90;;;;;;;9.72;82.06;98453.81;4980012;28;20038;-83
2023/01/07 05:13:48;;;;;;;2.80;2.53;;;;;;;9.78;82.31;98455.69;4978583;28;20042;-83
2023/01/07 05:16:15;;;;;;;4.07;2.92;;;;;;;9.77;82.38;98451.41;4977498;28;20519;-83
2023/01/07 05:18:41;;;;;;;3.80;2.85;;;;;;;9.76;82.54;98449.00;4977369;28;20035;-83
2023/01/07 05:21:06;;;;;;;3.55;2.50;;;;;;;9.79;82.32;98449.44;4977424;28;20382;-83
2023/01/07 05:23:32;;;;;;;3.47;2.72;;;;;;;9.79;82.24;98446.81;4976713;28;20038;-83
2023/01/07 05:25:57;;;;;;;2.90;2.53;;;;;;;9.78;82.13;98447.03;4976770;28;20033;-83
2023/01/07 05:28:22;;;;;;;3.22;2.55;;;;;;;9.73;82.42;98439.72;4978842;28;20076;-83
2023/01/07 05:30:48;;;;;;;3.05;2.58;;;;;;;9.72;82.12;98434.66;4976077;28;20035;-83
2023/01/07 05:33:13;;;;;;;4.25;2.40;;;;;;;9.79;82.27;98443.41;4978422;28;20049;-83
2023/01/07 05:35:39;;;;;;;5.03;2.85;;;;;;;9.77;82.49;98443.56;4983692;28;20022;-83
2023/01/07 05:38:04;;;;;;;4.30;2.60;;;;;;;9.78;82.35;98441.78;4984767;28;20073;-83
2023/01/07 05:40:30;;;;;;;3.92;3.17;;;;;;;9.74;82.32;98436.09;4980392;28;20026;-83
2023/01/07 05:42:56;;;;;;;2.92;2.63;;;;;;;9.74;82.39;98436.09;4980149;28;20041;-82
2023/01/07 05:45:21;;;;;;;3.95;2.92;;;;;;;9.73;82.95;98444.94;4983426;28;20124;-83
2023/01/07 05:47:47;;;;;;;5.10;3.40;;;;;;;9.72;82.75;98437.28;4978425;28;20031;-83
2023/01/07 05:50:13;;;;;;;3.28;2.95;;;;;;;9.70;82.90;98434.81;4982760;28;20042;-83
2023/01/07 05:52:39;;;;;;;3.78;3.20;;;;;;;9.69;82.40;98435.81;4982845;28;20035;-83
2023/01/07 05:55:06;;;;;;;4.80;3.00;;;;;;;9.69;82.44;98438.44;4981778;28;20031;-83
2023/01/07 05:57:32;;;;;;;4.00;3.22;;;;;;;9.68;82.77;98444.69;4984992;28;20042;-81
2023/01/07 05:59:57;;;;;;;3.30;2.85;;;;;;;9.68;83.20;98439.44;4981400;28;20038;-82
2023/01/07 06:02:23;;;;;;;3.50;2.85;;;;;;;9.66;83.05;98428.34;4980874;28;20051;-82
2023/01/07 06:04:48;;;;;;;3.25;2.58;;;;;;;9.58;83.36;98420.59;4984009;28;20035;-82
2023/01/07 06:07:14;;;;;;;3.10;2.60;;;;;;;9.60;83.25;98423.88;4981398;28;20123;-82
2023/01/07 06:09:40;;;;;;;4.07;2.75;;;;;;;9.60;83.50;98422.06;4981347;28;20042;-83
2023/01/07 06:12:06;;;;;;;3.13;2.83;;;;;;;9.60;83.72;98418.63;4980419;28;20035;-82
2023/01/07 06:14:31;;;;;;;3.25;2.95;;;;;;;9.61;83.46;98425.47;4978737;28;20042;-82
2023/01/07 06:16:57;;;;;;;3.13;2.80;;;;;;;9.60;83.60;98423.88;4982089;28;20034;-83
2023/01/07 06:19:22;;;;;;;3.28;2.97;;;;;;;9.56;83.14;98417.38;4981655;28;20389;-82
2023/01/07 06:21:48;;;;;;;3.53;3.13;;;;;;;9.54;83.65;98414.94;4979686;28;20121;-83
2023/01/07 06:24:14;;;;;;;3.55;2.72;;;;;;;9.57;83.56;98424.22;4984248;28;20040;-83
2023/01/07 06:26:39;;;;;;;3.47;3.00;;;;;;;9.58;83.39;98421.41;4983917;28;20837;-83
2023/01/07 06:29:06;;;;;;;4.85;2.97;;;;;;;9.55;83.35;98410.50;4982916;28;20388;-82
2023/01/07 06:31:31;;;;;;;3.50;2.90;;;;;;;9.56;83.60;98412.94;4975779;28;20026;-83
2023/01/07 06:33:57;;;;;;;3.00;2.70;;;;;;;9.57;83.60;98408.50;4981604;28;20066;-83
2023/01/07 06:36:23;;;;;;;3.50;3.00;;;;;;;9.56;83.57;98412.13;4976989;28;20030;-83
2023/01/07 06:38:48;;;;;;;3.03;2.67;;;;;;;9.55;83.45;98405.28;4983222;28;20057;-83
2023/01/07 06:41:14;;;;;;;3.60;2.80;;;;;;;9.50;83.63;98405.81;4979074;28;20525;-83
2023/01/07 06:43:39;;;;;;;3.88;3.10;;;;;;;9.49;84.07;98412.06;4976500;28;20038;-83
2023/01/07 06:46:05;;;;;;;4.10;3.10;;;;;;;9.52;84.21;98405.63;4977765;28;20101;-83
2023/01/07 06:48:30;;;;;;;3.40;2.70;;;;;;;9.51;84.03;98399.56;4975838;28;20046;-83
2023/01/07 06:50:56;;;;;;;4.50;2.92;;;;;;;9.52;84.07;98406.44;4983364;28;20121;-83
2023/01/07 06:53:21;;;;;;;4.97;2.90;;;;;;;9.52;84.17;98403.81;4976757;28;20039;-83
2023/01/07 06:55:50;;;;;;;4.18;3.10;;;;;;;9.55;83.99;98400.03;4980426;28;20162;-83
2023/01/07 06:58:17;;;;;;;4.05;3.15;;;;;;;9.53;84.03;98394.16;4978951;28;20070;-83
2023/01/07 07:00:42;;;;;;;3.83;3.28;;;;;;;9.49;84.25;98396.34;4983380;28;20038;-83
2023/01/07 07:03:08;;;;;;;4.10;3.22;;;;;;;9.49;84.24;98392.91;4983016;28;20453;-83
2023/01/07 07:05:34;;;;;;;4.25;2.90;;;;;;;9.51;84.43;98388.31;4981495;28;20039;-83
2023/01/07 07:07:59;;;;;;;3.65;3.25;;;;;;;9.51;84.64;98388.31;4982372;28;20034;-82
2023/01/07 07:10:26;;;;;;;3.92;3.42;;;;;;;9.45;84.45;98386.41;4980100;28;20046;-83
2023/01/07 07:12:51;;;;;;;4.10;3.45;;;;;;;9.47;84.49;98387.84;4978723;28;20115;-83
2023/01/07 07:15:18;;;;;;;3.78;3.28;;;;;;;9.49;84.42;98385.06;4982699;28;20143;-83
2023/01/07 07:17:44;;;;;;;4.03;3.50;;;;;;;9.51;84.49;98389.09;4981665;28;20109;-82
2023/01/07 07:20:11;;;;;;;4.97;3.60;;;;;;;9.51;84.52;98388.31;4981828;28;20026;-82
2023/01/07 07:22:36;;;;;;;5.07;3.20;;;;;;;9.48;84.17;98383.44;4977869;28;20046;-82
2023/01/07 07:25:02;;;;;;;5.32;3.38;;;;;;;9.45;84.52;98371.53;4982144;28;20030;-83
2023/01/07 07:27:28;;;;;;;4.00;3.50;;;;;;;9.45;84.43;98375.94;4978196;28;20053;-83
2023/01/07 07:29:54;;;;;;;4.35;3.28;;;;;;;9.45;84.38;98375.94;4979545;28;20034;-82
2023/01/07 07:32:19;;;;;;;3.55;3.05;;;;;;;9.51;84.53;98373.41;4976641;28;20386;-83
2023/01/07 07:34:44;;;;;;;3.95;3.28;;;;;;;9.53;84.93;98376.63;4980013;28;20048;-82
2023/01/07 07:37:10;;;;;;;3.35;3.05;;;;;;;9.46;84.73;98374.94;4984480;28;20034;-83
2023/01/07 07:39:36;;;;;;;4.63;3.47;;;;;;;9.52;85.07;98374.19;4977101;28;20034;-82
2023/01/07 07:42:04;;;;;;;4.72;3.10;;;;;;;9.56;84.49;98370.22;4988918;28;20491;-83
2023/01/07 07:44:29;;;;;;;4.10;3.38;;;;;;;9.55;84.67;98368.63;4977152;28;20142;-83
2023/01/07 07:46:55;;;;;;;3.83;3.30;;;;;;;9.56;84.64;98371.03;4980633;28;20113;-83
2023/01/07 07:49:20;;;;;;;6.05;3.47;;;;;;;9.57;84.67;98361.38;4983320;28;20117;-82
2023/01/07 07:51:46;;;;;;;4.38;3.63;;;;;;;9.52;85.00;98361.91;4963321;28;20034;-82
2023/01/07 07:54:11;;;;;;;4.65;3.60;;;;;;;9.54;85.09;98367.81;4978104;28;20929;-82
2023/01/07 07:56:37;;;;;;;5.00;3.55;;;;;;;9.53;84.67;98360.91;4978112;28;20041;-83
2023/01/07 07:59:02;;;;;;;4.45;3.83;;;;;;;9.52;85.29;98353.25;4978961;28;20093;-82
2023/01/07 08:01:28;;;;;;;4.63;3.50;;;;;;;9.59;85.22;98343.66;4979674;28;20141;-83
2023/01/07 08:03:53;;;;;;;4.80;3.58;;;;;;;9.57;84.70;98356.13;4977724;28;20035;-82
2023/01/07 08:06:19;;;;;;;4.32;3.85;;;;;;;9.53;84.59;98339.16;4979951;28;20073;-82
2023/01/07 08:08:44;;;;;;;3.95;3.55;;;;;;;9.61;84.99;98346.91;4983148;28;20035;-82
2023/01/07 08:11:10;;;;;;;4.10;3.58;;;;;;;9.56;85.04;98344.84;4979909;28;20034;-83
2023/01/07 08:13:35;;;;;;;6.20;3.70;;;;;;;9.56;85.05;98342.22;4979950;28;20045;-82
2023/01/07 08:16:01;;;;;;;5.28;3.50;;;;;;;9.59;84.67;98343.66;4980160;28;20485;-82
2023/01/07 08:18:26;;;;;;;4.88;3.80;;;;;;;9.55;84.46;98339.81;4982787;28;20061;-82
2023/01/07 08:20:52;;;;;;;5.25;3.75;;;;;;;9.60;85.48;98340.88;4979959;28;20062;-82
2023/01/07 08:23:17;;;;;;;4.43;3.75;;;;;;;9.53;84.87;98339.16;4980296;28;20463;-82
2023/01/07 08:25:43;;;;;;;5.10;4.03;;;;;;;9.50;85.22;98329.06;4979964;28;20533;-82
2023/01/07 08:28:10;;;;;;;4.65;3.50;;;;;;;9.43;85.18;98308.06;4978758;28;20046;-82
2023/01/07 08:30:36;;;;;;;4.88;3.80;;;;;;;9.46;84.64;98322.59;4973345;28;20039;-82
2023/01/07 08:33:06;;;;;;;6.65;4.30;;;;;;;9.52;85.42;98316.59;4977135;28;20046;-82
2023/01/07 08:35:31;;;;;;;5.50;4.40;;;;;;;9.56;85.11;98321.28;4975474;28;20030;-82
2023/01/07 08:38:07;;;;;;;5.65;4.18;;;;;;;9.53;85.27;98307.75;4979892;28;20041;-82
2023/01/07 08:40:33;;;;;;;7.25;4.55;;;;;;;9.56;85.03;98317.84;4977878;28;20034;-82
2023/01/07 08:43:05;;;;;;;5.50;4.20;;;;;;;9.57;84.97;98322.91;4977997;28;20034;-82
2023/01/07 08:45:31;;;;;;;6.88;4.25;;;;;;;9.61;85.12;98323.34;4976787;28;20070;-82
2023/01/07 08:47:57;;;;;;;5.57;4.10;;;;;;;9.67;85.39;98313.94;4980863;28;20117;-82
2023/01/07 08:50:28;;;;;;;5.40;3.88;;;;;;;9.60;84.80;98303.41;4980530;28;20096;-82
2023/01/07 08:52:54;;;;;;;4.65;4.05;;;;;;;9.71;85.45;98313.34;4979135;28;20406;-82
2023/01/07 08:55:20;;;;;;;5.18;3.90;;;;;;;9.69;84.58;98310.13;4978884;28;20115;-82
2023/01/07 08:57:46;;;;;;;5.25;4.35;;;;;;;9.65;84.95;98304.47;4981140;28;20039;-82
2023/01/07 09:00:15;;;;;;;5.07;3.90;;;;;;;9.66;85.03;98310.50;4979187;28;20069;-82
2023/01/07 09:02:40;;;;;;;4.72;3.88;;;;;;;9.72;85.27;98307.13;4979784;28;20043;-82
2023/01/07 09:05:07;;;;;;;5.00;4.15;;;;;;;9.74;85.24;98305.13;4980190;28;20498;-82
2023/01/07 09:07:32;;;;;;;5.78;4.10;;;;;;;9.83;85.35;98314.44;4976409;28;20133;-82
2023/01/07 09:09:58;;;;;;;7.85;4.47;;;;;;;9.79;84.71;98291.47;4979847;28;20114;-82
2023/01/07 09:12:23;;;;;;;5.10;4.57;;;;;;;9.77;84.75;98299.50;4981012;28;20042;-81
2023/01/07 09:14:49;;;;;;;5.05;3.88;;;;;;;9.77;84.67;98296.88;4980668;28;20027;-82
2023/01/07 09:17:14;;;;;;;6.60;4.82;;;;;;;9.77;85.49;98296.06;4983962;28;20040;-82
2023/01/07 09:19:40;;;;;;;5.88;4.50;;;;;;;9.70;84.96;98303.88;4983411;28;20039;-82
2023/01/07 09:22:05;;;;;;;5.68;4.63;;;;;;;9.70;85.26;98293.41;4981548;28;20041;-83
2023/01/07 09:24:30;;;;;;;6.65;4.40;;;;;;;9.74;85.47;98297.25;4980803;28;20121;-82
2023/01/07 09:26:56;;;;;;;5.47;4.30;;;;;;;9.64;85.12;98297.56;4981132;28;20121;-82
2023/01/07 09:29:21;;;;;;;6.85;4.30;;;;;;;9.74;86.26;98302.50;4964314;28;20034;-82
2023/01/07 09:31:47;;;;;;;6.40;4.30;;;;;;;9.74;85.04;98289.41;4978077;28;20043;-82
2023/01/07 09:34:12;;;;;;;4.38;3.72;;;;;;;9.83;85.54;98295.31;4981649;28;20580;-82
2023/01/07 09:36:38;;;;;;;6.35;4.40;;;;;;;9.86;85.21;98300.19;4989882;28;20037;-82
2023/01/07 09:39:04;;;;;;;6.05;4.93;;;;;;;9.91;85.10;98290.75;4978000;28;20034;-81
2023/01/07 09:41:48;;;;;;;5.57;4.35;;;;;;;9.92;85.04;98289.75;4974329;28;20367;-81
2023/01/07 09:44:41;;;;;;;5.35;4.18;;;;;;;9.94;83.95;98300.03;4975833;28;20125;-82
2023/01/07 09:47:08;;;;;;;7.38;4.40;;;;;;;9.99;84.20;98294.22;4986155;28;20043;-81
2023/01/07 09:49:34;;;;;;;5.05;3.75;;;;;;;9.99;83.25;98296.84;4981838;28;20088;-82
2023/01/07 09:52:21;;;;;;;4.65;3.35;;;;;;;9.98;83.03;98290.00;4983177;28;20034;-82
2023/01/07 09:54:56;;;;;;;4.75;3.65;;;;;;;9.87;82.61;98286.06;4982395;28;20105;-82
2023/01/07 09:57:21;;;;;;;6.10;4.00;;;;;;;9.87;82.87;98280.84;4986337;28;20085;-82
2023/01/07 09:59:47;;;;;;;5.15;4.32;;;;;;;9.90;82.50;98283.09;4980053;28;20066;-82
2023/01/07 10:02:58;;;;;;;6.40;5.00;;;;;;;9.91;83.25;98279.47;4981592;28;20134;-82
2023/01/07 10:06:00;;;;;;;6.38;4.53;;;;;;;9.95;82.20;98270.22;4980795;28;20526;-82
2023/01/07 10:09:04;;;;;;;6.53;4.78;;;;;;;9.95;82.46;98270.22;4980316;28;20176;-80
2023/01/07 10:12:16;;;;;;;4.90;3.83;;;;;;;9.98;81.60;98269.03;4981699;28;20026;-82
2023/01/07 10:15:06;;;;;;;5.95;3.95;;;;;;;9.93;81.35;98257.31;4977772;28;20048;-82
2023/01/07 10:17:41;;;;;;;4.95;3.90;;;;;;;9.97;81.53;98260.38;4979272;28;20487;-82
2023/01/07 10:20:33;;;;;;;5.38;3.67;;;;;;;10.02;80.74;98249.31;4983583;28;20038;-82
2023/01/07 10:23:09;;;;;;;5.25;3.60;;;;;;;10.05;80.45;98243.69;4981053;28;20062;-82
2023/01/07 10:26:12;;;;;;;4.90;3.85;;;;;;;10.05;80.21;98244.47;4977025;28;20609;-82
2023/01/07 10:28:55;;;;;;;4.68;3.70;;;;;;;10.15;81.24;98238.91;4983100;28;20057;-82
2023/01/07 10:31:25;;;;;;;4.78;3.90;;;;;;;10.15;80.27;98231.03;4971900;28;20043;-86
2023/01/07 10:33:52;;;;;;;5.05;4.43;;;;;;;10.22;79.80;98224.03;4978673;28;20034;-81
2023/01/07 10:36:25;;;;;;;5.20;4.70;;;;;;;10.24;79.88;98222.03;4988160;28;20116;-82
2023/01/07 10:39:30;;;;;;;4.13;3.72;;;;;;;10.21;79.70;98221.59;4980732;28;20686;-81
2023/01/07 10:41:55;;;;;;;4.30;3.90;;;;;;;10.21;79.31;98222.41;4980518;28;20638;-81
2023/01/07 10:44:57;;;;;;;9.25;6.43;;;;;;;10.27;79.49;98221.66;4979312;28;20053;-81
2023/01/07 10:48:17;;;;;;;7.35;6.65;;;;;;;10.27;79.09;98202.50;4984034;28;20484;-82
2023/01/07 10:51:26;;;;;;;6.22;4.15;;;;;;;10.27;78.51;98202.50;4979653;28;20118;-81
2023/01/07 10:54:33;;;;;;;4.28;3.80;;;;;;;10.34;77.82;98205.97;4979815;28;20058;-81
2023/01/07 10:57:23;;;;;;;3.83;3.42;;;;;;;10.42;77.94;98203.16;4978511;28;20036;-82
2023/01/07 11:00:06;;;;;;;3.95;3.50;;;;;;;10.42;76.89;98203.16;4981590;28;20489;-81
2023/01/07 11:02:32;;;;;;;4.25;3.15;;;;;;;10.49;76.52;98187.44;4977781;28;20074;-81
2023/01/07 11:04:58;;;;;;;3.40;2.85;;;;;;;10.51;75.63;98191.50;4982519;28;20530;-81
2023/01/07 11:07:42;;;;;;;3.03;2.67;;;;;;;10.59;75.76;98187.91;4979196;28;20038;-81
2023/01/07 11:10:16;;;;;;;3.85;2.78;;;;;;;10.68;75.35;98182.28;4981928;28;20039;-81
2023/01/07 11:12:48;;;;;;;4.63;2.95;;;;;;;10.77;75.90;98169.78;4980066;28;20030;-81
2023/01/07 11:15:39;;;;;;;3.65;2.63;;;;;;;10.84;75.31;98165.34;4977647;28;20053;-81
2023/01/07 11:18:15;;;;;;;;;;;;;;;10.91;75.26;98167.97;4979200;28;20439;-81
2023/01/07 11:20:44;;;;;;;2.85;2.60;;;;;;;10.89;73.66;98168.19;4979851;28;20004;-81
2023/01/07 11:23:32;;;;;;;2.92;2.55;;;;;;;10.92;72.18;98162.56;4980625;28;20034;-81
2023/01/07 11:26:26;;;;;;;2.70;2.40;;;;;;;10.84;72.07;98149.59;4976123;28;20085;-82
2023/01/07 11:28:52;;;;;;;2.80;2.30;;;;;;;10.88;72.28;98150.84;4976059;28;20050;-82
2023/01/07 11:31:20;;;;;;;2.60;2.40;;;;;;;10.96;73.57;98150.63;4973068;28;20449;-82
2023/01/07 11:33:53;;;;;;;3.55;2.33;;;;;;;10.97;72.08;98144.41;4977180;28;20050;-82
2023/01/07 11:36:18;;;;;;;2.30;2.00;;;;;;;10.98;71.39;98145.22;4975743;28;20119;-82
2023/01/07 11:38:45;;;;;;;3.33;2.20;;;;;;;11.01;72.38;98143.97;4977041;28;20063;-82
2023/01/07 11:41:23;;;;;;;3.00;2.70;;;;;;;11.10;72.18;98129.66;4976441;28;20491;-82
2023/01/07 11:43:53;;;;;;;3.17;2.67;;;;;;;11.15;70.95;98137.72;4981841;28;20041;-83
2023/01/07 11:46:21;;;;;;;3.20;2.42;;;;;;;11.18;70.01;98134.69;4974609;28;20050;-83
2023/01/07 11:48:55;;;;;;;2.50;2.30;;;;;;;11.20;69.53;98127.41;4979049;28;20142;-83
2023/01/07 11:51:22;;;;;;;4.40;2.60;;;;;;;11.14;68.95;98125.59;4978683;28;20039;-83
2023/01/07 11:53:47;;;;;;;4.03;3.17;;;;;;;11.12;68.07;98114.50;4986711;28;20529;-83
2023/01/07 11:56:33;;;;;;;3.00;2.70;;;;;;;11.09;68.60;98117.53;4980401;28;20042;-83
2023/01/07 11:59:19;;;;;;;3.22;2.55;;;;;;;10.82;66.68;98114.09;4979286;28;20045;-83
2023/01/07 12:01:53;;;;;;;3.92;2.70;;;;;;;10.82;69.51;98106.22;4979580;28;20043;-83